createdAt,value
2022-11-07T06:15:52.895Z,14.85
2022-11-07T06:25:52.815Z,14.64
2022-11-07T06:35:52.818Z,16.67
2022-11-07T06:45:52.887Z,12.43
2022-11-07T06:55:53.112Z,13.90
2022-11-07T07:05:52.885Z,14.81
2022-11-07T07:15:52.924Z,15.86
2022-11-07T07:25:52.894Z,16.09
2022-11-07T07:35:52.778Z,15.40
2022-11-07T07:45:52.847Z,12.29
2022-11-07T07:55:52.910Z,16.52
2022-11-07T08:05:52.963Z,15.95
2022-11-07T08:15:52.839Z,16.26
2022-11-07T08:25:52.790Z,16.42
2022-11-07T08:35:52.993Z,19.04
2022-11-07T08:45:53.100Z,15.73
2022-11-07T08:55:53.205Z,16.19
2022-11-07T09:05:53.271Z,16.44
2022-11-07T09:15:53.163Z,17.82
2022-11-07T09:25:53.112Z,15.93
2022-11-07T09:35:53.040Z,15.64
2022-11-07T09:45:53.173Z,14.91
2022-11-07T09:55:53.142Z,16.36
2022-11-07T10:05:53.143Z,15.00
2022-11-07T10:15:53.187Z,14.02
2022-11-07T10:25:53.135Z,14.17
2022-11-07T10:35:53.201Z,14.38
2022-11-07T10:45:53.381Z,14.56
2022-11-07T10:55:53.331Z,12.35
2022-11-07T11:05:53.392Z,13.10
2022-11-07T11:15:53.222Z,12.01
2022-11-07T11:25:53.392Z,11.69
2022-11-07T11:35:53.210Z,14.65
2022-11-07T11:45:53.323Z,16.53
2022-11-07T11:55:53.323Z,14.99
2022-11-07T12:05:53.432Z,14.70
2022-11-07T12:15:53.473Z,19.45
2022-11-07T12:25:53.415Z,17.76
2022-11-07T12:35:53.251Z,19.47
2022-11-07T12:45:53.312Z,14.17
2022-11-07T12:55:53.293Z,19.57
2022-11-07T13:05:53.471Z,16.90
2022-11-07T13:16:14.682Z,13.17
2022-11-07T13:25:53.411Z,13.07
2022-11-07T13:35:53.321Z,12.17
2022-11-07T13:45:53.245Z,16.21
2022-11-07T13:55:53.437Z,13.97
2022-11-07T14:05:53.390Z,16.94
2022-11-07T14:15:53.371Z,18.10
2022-11-07T14:25:53.347Z,20.70
2022-11-07T14:35:53.268Z,17.89
2022-11-07T14:46:11.307Z,19.22
2022-11-07T14:55:53.484Z,17.06
2022-11-07T15:05:53.388Z,12.77
2022-11-07T15:15:53.435Z,12.96
2022-11-07T15:25:53.435Z,15.30
2022-11-07T15:35:53.459Z,12.07
2022-11-07T15:45:53.443Z,10.14
2022-11-07T15:55:53.466Z,9.79
2022-11-07T16:05:53.649Z,10.29
2022-11-07T16:15:53.457Z,9.52
2022-11-07T16:25:53.391Z,11.54
2022-11-07T16:35:53.524Z,10.79
2022-11-07T16:45:53.448Z,12.52
2022-11-07T16:55:54.106Z,11.79
2022-11-07T17:05:53.441Z,11.54
2022-11-07T17:15:53.487Z,11.24
2022-11-07T17:25:53.536Z,10.87
2022-11-07T17:35:53.556Z,10.70
2022-11-07T17:45:53.577Z,9.70
2022-11-07T17:55:53.739Z,7.79
2022-11-07T18:05:53.600Z,7.31
2022-11-07T18:15:53.498Z,8.54
2022-11-07T18:25:53.644Z,8.33
2022-11-07T18:35:53.532Z,7.68
2022-11-07T18:45:53.771Z,7.58
2022-11-07T18:55:53.813Z,5.89
2022-11-07T19:05:53.850Z,7.40
2022-11-07T19:15:54.057Z,7.30
